sensor_id;sensor_type;location;lat;lon;timestamp;temperature;humidity
14473;DHT22;7322;50.872;4.386;2023-09-08T00:01:35;27.90;99.90
14473;DHT22;7322;50.872;4.386;2023-09-08T00:04:04;27.80;99.90
14473;DHT22;7322;50.872;4.386;2023-09-08T00:06:32;27.90;99.90
14473;DHT22;7322;50.872;4.386;2023-09-08T00:09:00;27.90;99.90
14473;DHT22;7322;50.872;4.386;2023-09-08T00:11:26;27.90;99.90
14473;DHT22;7322;50.872;4.386;2023-09-08T00:13:53;27.90;99.90
14473;DHT22;7322;50.872;4.386;2023-09-08T00:16:22;27.90;99.90
14473;DHT22;7322;50.872;4.386;2023-09-08T00:18:50;27.80;99.90
14473;DHT22;7322;50.872;4.386;2023-09-08T00:21:21;27.80;99.90
14473;DHT22;7322;50.872;4.386;2023-09-08T00:23:48;27.80;99.90
14473;DHT22;7322;50.872;4.386;2023-09-08T00:26:16;27.80;99.90
14473;DHT22;7322;50.872;4.386;2023-09-08T00:28:43;27.80;99.90
14473;DHT22;7322;50.872;4.386;2023-09-08T00:31:10;27.80;99.90
14473;DHT22;7322;50.872;4.386;2023-09-08T00:33:38;27.80;99.90
14473;DHT22;7322;50.872;4.386;2023-09-08T00:36:11;27.80;99.90
14473;DHT22;7322;50.872;4.386;2023-09-08T00:38:41;27.70;99.90
14473;DHT22;7322;50.872;4.386;2023-09-08T00:41:09;27.70;99.90
14473;DHT22;7322;50.872;4.386;2023-09-08T00:43:37;27.70;99.90
14473;DHT22;7322;50.872;4.386;2023-09-08T00:46:12;27.70;99.90
14473;DHT22;7322;50.872;4.386;2023-09-08T00:48:40;27.70;99.90
14473;DHT22;7322;50.872;4.386;2023-09-08T00:51:08;27.70;99.90
14473;DHT22;7322;50.872;4.386;2023-09-08T00:53:35;27.70;99.90
14473;DHT22;7322;50.872;4.386;2023-09-08T00:56:04;27.70;99.90
14473;DHT22;7322;50.872;4.386;2023-09-08T00:58:31;27.70;99.90
14473;DHT22;7322;50.872;4.386;2023-09-08T01:00:58;27.70;99.90
14473;DHT22;7322;50.872;4.386;2023-09-08T01:03:26;27.70;99.90
14473;DHT22;7322;50.872;4.386;2023-09-08T01:05:54;27.60;99.90
14473;DHT22;7322;50.872;4.386;2023-09-08T01:08:22;27.60;99.90
14473;DHT22;7322;50.872;4.386;2023-09-08T01:10:49;27.60;99.90
14473;DHT22;7322;50.872;4.386;2023-09-08T01:13:17;27.60;99.90
14473;DHT22;7322;50.872;4.386;2023-09-08T01:15:44;27.60;99.90
14473;DHT22;7322;50.872;4.386;2023-09-08T01:18:11;27.70;99.90
14473;DHT22;7322;50.872;4.386;2023-09-08T01:20:52;27.60;99.90
14473;DHT22;7322;50.872;4.386;2023-09-08T01:23:28;27.60;99.90
14473;DHT22;7322;50.872;4.386;2023-09-08T01:26:07;27.50;99.90
14473;DHT22;7322;50.872;4.386;2023-09-08T01:28:36;27.50;99.90
14473;DHT22;7322;50.872;4.386;2023-09-08T01:31:04;27.60;99.90
14473;DHT22;7322;50.872;4.386;2023-09-08T01:33:31;27.50;99.90
14473;DHT22;7322;50.872;4.386;2023-09-08T01:35:59;27.60;99.90
14473;DHT22;7322;50.872;4.386;2023-09-08T01:38:26;27.60;99.90
14473;DHT22;7322;50.872;4.386;2023-09-08T01:40:54;27.60;99.90
14473;DHT22;7322;50.872;4.386;2023-09-08T01:43:22;27.60;99.90
14473;DHT22;7322;50.872;4.386;2023-09-08T01:45:49;27.60;99.90
14473;DHT22;7322;50.872;4.386;2023-09-08T01:48:17;27.60;99.90
14473;DHT22;7322;50.872;4.386;2023-09-08T01:50:46;27.60;99.90
14473;DHT22;7322;50.872;4.386;2023-09-08T01:53:15;27.60;99.90
14473;DHT22;7322;50.872;4.386;2023-09-08T01:55:44;27.60;99.90
14473;DHT22;7322;50.872;4.386;2023-09-08T01:58:11;27.60;99.90
14473;DHT22;7322;50.872;4.386;2023-09-08T02:00:40;27.60;99.90
14473;DHT22;7322;50.872;4.386;2023-09-08T02:03:07;27.60;99.90
14473;DHT22;7322;50.872;4.386;2023-09-08T02:05:34;27.60;99.90
14473;DHT22;7322;50.872;4.386;2023-09-08T02:08:05;27.60;99.90
14473;DHT22;7322;50.872;4.386;2023-09-08T02:10:32;27.60;99.90
14473;DHT22;7322;50.872;4.386;2023-09-08T02:12:59;27.60;99.90
14473;DHT22;7322;50.872;4.386;2023-09-08T02:15:26;27.60;99.90
14473;DHT22;7322;50.872;4.386;2023-09-08T02:17:54;27.60;99.90
14473;DHT22;7322;50.872;4.386;2023-09-08T02:20:22;27.60;99.90
14473;DHT22;7322;50.872;4.386;2023-09-08T02:22:53;27.50;99.90
14473;DHT22;7322;50.872;4.386;2023-09-08T02:25:20;27.60;99.90
14473;DHT22;7322;50.872;4.386;2023-09-08T02:27:49;27.50;99.90
14473;DHT22;7322;50.872;4.386;2023-09-08T02:30:16;27.50;99.90
14473;DHT22;7322;50.872;4.386;2023-09-08T02:32:43;27.50;99.90
14473;DHT22;7322;50.872;4.386;2023-09-08T02:35:12;27.50;99.90
14473;DHT22;7322;50.872;4.386;2023-09-08T02:37:39;27.40;99.90
14473;DHT22;7322;50.872;4.386;2023-09-08T02:40:07;27.40;99.90
14473;DHT22;7322;50.872;4.386;2023-09-08T02:42:35;27.40;99.90
14473;DHT22;7322;50.872;4.386;2023-09-08T02:45:03;27.40;99.90
14473;DHT22;7322;50.872;4.386;2023-09-08T02:47:30;27.40;99.90
14473;DHT22;7322;50.872;4.386;2023-09-08T02:49:57;27.40;99.90
14473;DHT22;7322;50.872;4.386;2023-09-08T02:52:25;27.40;99.90
14473;DHT22;7322;50.872;4.386;2023-09-08T02:54:53;27.40;99.90
14473;DHT22;7322;50.872;4.386;2023-09-08T02:57:20;27.40;99.90
14473;DHT22;7322;50.872;4.386;2023-09-08T02:59:49;27.40;99.90
14473;DHT22;7322;50.872;4.386;2023-09-08T03:02:17;27.40;99.90
14473;DHT22;7322;50.872;4.386;2023-09-08T03:04:44;27.40;99.90
14473;DHT22;7322;50.872;4.386;2023-09-08T03:07:11;27.40;99.90
14473;DHT22;7322;50.872;4.386;2023-09-08T03:09:39;27.50;99.90
14473;DHT22;7322;50.872;4.386;2023-09-08T03:12:06;27.50;99.90
14473;DHT22;7322;50.872;4.386;2023-09-08T03:14:34;27.40;99.90
14473;DHT22;7322;50.872;4.386;2023-09-08T03:17:01;27.40;99.90
14473;DHT22;7322;50.872;4.386;2023-09-08T03:19:29;27.30;99.90
14473;DHT22;7322;50.872;4.386;2023-09-08T03:21:56;27.30;99.90
14473;DHT22;7322;50.872;4.386;2023-09-08T03:24:25;27.20;99.90
14473;DHT22;7322;50.872;4.386;2023-09-08T03:26:53;27.30;99.90
14473;DHT22;7322;50.872;4.386;2023-09-08T03:29:21;27.20;99.90
14473;DHT22;7322;50.872;4.386;2023-09-08T03:31:48;27.30;99.90
14473;DHT22;7322;50.872;4.386;2023-09-08T03:34:15;27.30;99.90
14473;DHT22;7322;50.872;4.386;2023-09-08T03:36:43;27.30;99.90
14473;DHT22;7322;50.872;4.386;2023-09-08T03:39:10;27.30;99.90
14473;DHT22;7322;50.872;4.386;2023-09-08T03:41:38;27.30;99.90
14473;DHT22;7322;50.872;4.386;2023-09-08T03:44:06;27.30;99.90
14473;DHT22;7322;50.872;4.386;2023-09-08T03:46:35;27.30;99.90
14473;DHT22;7322;50.872;4.386;2023-09-08T03:49:03;27.30;99.90
14473;DHT22;7322;50.872;4.386;2023-09-08T03:51:30;27.20;99.90
14473;DHT22;7322;50.872;4.386;2023-09-08T03:53:57;27.20;99.90
14473;DHT22;7322;50.872;4.386;2023-09-08T03:56:24;27.20;99.90
14473;DHT22;7322;50.872;4.386;2023-09-08T03:58:51;27.20;99.90
14473;DHT22;7322;50.872;4.386;2023-09-08T04:01:21;27.20;99.90
14473;DHT22;7322;50.872;4.386;2023-09-08T04:03:48;27.20;99.90
14473;DHT22;7322;50.872;4.386;2023-09-08T04:06:14;27.20;99.90
14473;DHT22;7322;50.872;4.386;2023-09-08T04:08:41;27.20;99.90
14473;DHT22;7322;50.872;4.386;2023-09-08T04:11:11;27.20;99.90
14473;DHT22;7322;50.872;4.386;2023-09-08T04:13:38;27.20;99.90
14473;DHT22;7322;50.872;4.386;2023-09-08T04:16:23;27.10;99.90
14473;DHT22;7322;50.872;4.386;2023-09-08T04:18:52;27.20;99.90
14473;DHT22;7322;50.872;4.386;2023-09-08T04:21:20;27.10;99.90
14473;DHT22;7322;50.872;4.386;2023-09-08T04:23:47;27.20;99.90
14473;DHT22;7322;50.872;4.386;2023-09-08T04:26:14;27.10;99.90
14473;DHT22;7322;50.872;4.386;2023-09-08T04:28:41;27.20;99.90
14473;DHT22;7322;50.872;4.386;2023-09-08T04:31:08;27.10;99.90
14473;DHT22;7322;50.872;4.386;2023-09-08T04:33:36;27.10;99.90
14473;DHT22;7322;50.872;4.386;2023-09-08T04:36:04;27.10;99.90
14473;DHT22;7322;50.872;4.386;2023-09-08T04:38:31;27.10;99.90
14473;DHT22;7322;50.872;4.386;2023-09-08T04:40:58;27.10;99.90
14473;DHT22;7322;50.872;4.386;2023-09-08T04:43:26;27.10;99.90
14473;DHT22;7322;50.872;4.386;2023-09-08T04:45:53;27.10;99.90
14473;DHT22;7322;50.872;4.386;2023-09-08T04:48:20;27.10;99.90
14473;DHT22;7322;50.872;4.386;2023-09-08T04:50:48;27.10;99.90
14473;DHT22;7322;50.872;4.386;2023-09-08T04:53:17;27.10;99.90
14473;DHT22;7322;50.872;4.386;2023-09-08T04:55:44;27.10;99.90
14473;DHT22;7322;50.872;4.386;2023-09-08T04:58:12;27.10;99.90
14473;DHT22;7322;50.872;4.386;2023-09-08T05:00:39;27.00;99.90
14473;DHT22;7322;50.872;4.386;2023-09-08T05:03:07;27.00;99.90
14473;DHT22;7322;50.872;4.386;2023-09-08T05:05:34;27.00;99.90
14473;DHT22;7322;50.872;4.386;2023-09-08T05:08:03;27.00;99.90
14473;DHT22;7322;50.872;4.386;2023-09-08T05:10:32;27.10;99.90
14473;DHT22;7322;50.872;4.386;2023-09-08T05:12:59;27.00;99.90
14473;DHT22;7322;50.872;4.386;2023-09-08T05:15:26;27.00;99.90
14473;DHT22;7322;50.872;4.386;2023-09-08T05:17:53;27.10;99.90
14473;DHT22;7322;50.872;4.386;2023-09-08T05:20:20;27.10;99.90
14473;DHT22;7322;50.872;4.386;2023-09-08T05:22:47;27.00;99.90
14473;DHT22;7322;50.872;4.386;2023-09-08T05:25:16;27.00;99.90
14473;DHT22;7322;50.872;4.386;2023-09-08T05:27:50;27.00;99.90
14473;DHT22;7322;50.872;4.386;2023-09-08T05:30:23;27.00;99.90
14473;DHT22;7322;50.872;4.386;2023-09-08T05:32:50;27.00;99.90
14473;DHT22;7322;50.872;4.386;2023-09-08T05:35:17;27.00;99.90
14473;DHT22;7322;50.872;4.386;2023-09-08T05:37:44;27.00;99.90
14473;DHT22;7322;50.872;4.386;2023-09-08T05:40:11;27.00;99.90
14473;DHT22;7322;50.872;4.386;2023-09-08T05:42:41;27.00;99.90
14473;DHT22;7322;50.872;4.386;2023-09-08T05:45:09;26.90;99.90
14473;DHT22;7322;50.872;4.386;2023-09-08T05:47:36;26.70;99.90
14473;DHT22;7322;50.872;4.386;2023-09-08T05:50:03;26.60;99.90
14473;DHT22;7322;50.872;4.386;2023-09-08T05:52:36;26.70;99.90
14473;DHT22;7322;50.872;4.386;2023-09-08T05:55:04;26.80;99.90
14473;DHT22;7322;50.872;4.386;2023-09-08T05:57:40;26.80;99.90
14473;DHT22;7322;50.872;4.386;2023-09-08T06:00:08;26.60;99.90
14473;DHT22;7322;50.872;4.386;2023-09-08T06:02:36;26.50;99.90
14473;DHT22;7322;50.872;4.386;2023-09-08T06:05:17;26.30;99.90
14473;DHT22;7322;50.872;4.386;2023-09-08T06:07:45;26.20;99.90
14473;DHT22;7322;50.872;4.386;2023-09-08T06:10:25;26.10;99.90
14473;DHT22;7322;50.872;4.386;2023-09-08T06:12:56;26.10;99.90
14473;DHT22;7322;50.872;4.386;2023-09-08T06:15:47;26.10;99.90
14473;DHT22;7322;50.872;4.386;2023-09-08T06:18:22;26.00;99.90
14473;DHT22;7322;50.872;4.386;2023-09-08T06:20:52;26.00;99.90
14473;DHT22;7322;50.872;4.386;2023-09-08T06:23:20;26.10;99.90
14473;DHT22;7322;50.872;4.386;2023-09-08T06:25:56;26.30;99.90
14473;DHT22;7322;50.872;4.386;2023-09-08T06:28:39;26.60;99.90
14473;DHT22;7322;50.872;4.386;2023-09-08T06:31:08;26.60;99.90
14473;DHT22;7322;50.872;4.386;2023-09-08T06:33:42;26.60;99.90
14473;DHT22;7322;50.872;4.386;2023-09-08T06:36:11;26.60;99.90
14473;DHT22;7322;50.872;4.386;2023-09-08T06:38:52;26.50;99.90
14473;DHT22;7322;50.872;4.386;2023-09-08T06:41:29;26.40;99.90
14473;DHT22;7322;50.872;4.386;2023-09-08T06:43:57;26.40;99.90
14473;DHT22;7322;50.872;4.386;2023-09-08T06:46:27;26.30;99.90
14473;DHT22;7322;50.872;4.386;2023-09-08T06:49:13;26.20;99.90
14473;DHT22;7322;50.872;4.386;2023-09-08T06:51:40;26.20;99.90
14473;DHT22;7322;50.872;4.386;2023-09-08T06:54:11;26.20;99.90
14473;DHT22;7322;50.872;4.386;2023-09-08T06:56:48;26.20;99.90
14473;DHT22;7322;50.872;4.386;2023-09-08T06:59:17;26.30;99.90
14473;DHT22;7322;50.872;4.386;2023-09-08T07:01:44;26.20;99.90
14473;DHT22;7322;50.872;4.386;2023-09-08T07:04:11;26.30;99.90
14473;DHT22;7322;50.872;4.386;2023-09-08T07:06:47;26.30;99.90
14473;DHT22;7322;50.872;4.386;2023-09-08T07:09:15;26.40;99.90
14473;DHT22;7322;50.872;4.386;2023-09-08T07:11:42;26.40;99.90
14473;DHT22;7322;50.872;4.386;2023-09-08T07:14:13;26.50;99.90
14473;DHT22;7322;50.872;4.386;2023-09-08T07:17:12;26.50;99.90
14473;DHT22;7322;50.872;4.386;2023-09-08T07:19:46;26.60;99.90
14473;DHT22;7322;50.872;4.386;2023-09-08T07:22:26;26.60;99.90
14473;DHT22;7322;50.872;4.386;2023-09-08T07:25:25;26.70;99.90
14473;DHT22;7322;50.872;4.386;2023-09-08T07:27:52;26.80;99.90
14473;DHT22;7322;50.872;4.386;2023-09-08T07:30:20;26.80;99.90
14473;DHT22;7322;50.872;4.386;2023-09-08T07:33:16;26.80;99.90
14473;DHT22;7322;50.872;4.386;2023-09-08T07:35:45;26.90;99.90
14473;DHT22;7322;50.872;4.386;2023-09-08T07:38:14;26.90;99.90
14473;DHT22;7322;50.872;4.386;2023-09-08T07:40:47;27.00;99.90
14473;DHT22;7322;50.872;4.386;2023-09-08T07:43:15;27.00;99.90
14473;DHT22;7322;50.872;4.386;2023-09-08T07:45:59;27.00;99.90
14473;DHT22;7322;50.872;4.386;2023-09-08T07:48:32;27.00;99.90
14473;DHT22;7322;50.872;4.386;2023-09-08T07:51:13;27.00;99.90
14473;DHT22;7322;50.872;4.386;2023-09-08T07:53:43;27.00;99.90
14473;DHT22;7322;50.872;4.386;2023-09-08T07:56:17;27.00;99.90
14473;DHT22;7322;50.872;4.386;2023-09-08T07:58:46;27.00;99.90
14473;DHT22;7322;50.872;4.386;2023-09-08T08:01:13;27.10;99.90
14473;DHT22;7322;50.872;4.386;2023-09-08T08:03:42;27.10;99.90
14473;DHT22;7322;50.872;4.386;2023-09-08T08:06:09;27.10;99.90
14473;DHT22;7322;50.872;4.386;2023-09-08T08:08:37;27.10;99.90
14473;DHT22;7322;50.872;4.386;2023-09-08T08:11:10;27.10;99.90
14473;DHT22;7322;50.872;4.386;2023-09-08T08:13:37;27.10;99.90
14473;DHT22;7322;50.872;4.386;2023-09-08T08:16:04;27.10;99.90
14473;DHT22;7322;50.872;4.386;2023-09-08T08:18:31;27.10;99.90
14473;DHT22;7322;50.872;4.386;2023-09-08T08:21:00;27.10;99.90
14473;DHT22;7322;50.872;4.386;2023-09-08T08:23:32;27.10;99.90
14473;DHT22;7322;50.872;4.386;2023-09-08T08:25:59;27.10;99.90
14473;DHT22;7322;50.872;4.386;2023-09-08T08:28:30;27.10;99.90
14473;DHT22;7322;50.872;4.386;2023-09-08T08:30:58;27.10;99.90
14473;DHT22;7322;50.872;4.386;2023-09-08T08:33:25;27.10;99.90
14473;DHT22;7322;50.872;4.386;2023-09-08T08:35:53;27.10;99.90
14473;DHT22;7322;50.872;4.386;2023-09-08T08:38:22;27.20;99.90
14473;DHT22;7322;50.872;4.386;2023-09-08T08:40:49;27.20;99.90
14473;DHT22;7322;50.872;4.386;2023-09-08T08:43:18;27.30;99.90
14473;DHT22;7322;50.872;4.386;2023-09-08T08:45:48;27.30;99.90
14473;DHT22;7322;50.872;4.386;2023-09-08T08:48:18;27.30;99.90
14473;DHT22;7322;50.872;4.386;2023-09-08T08:50:47;27.30;99.90
14473;DHT22;7322;50.872;4.386;2023-09-08T08:53:16;27.30;99.90
14473;DHT22;7322;50.872;4.386;2023-09-08T08:55:46;27.40;99.90
14473;DHT22;7322;50.872;4.386;2023-09-08T08:58:14;27.40;99.90
14473;DHT22;7322;50.872;4.386;2023-09-08T09:00:44;27.50;99.90
14473;DHT22;7322;50.872;4.386;2023-09-08T09:03:11;27.50;99.90
14473;DHT22;7322;50.872;4.386;2023-09-08T09:05:39;27.50;99.90
14473;DHT22;7322;50.872;4.386;2023-09-08T09:08:09;27.50;99.90
14473;DHT22;7322;50.872;4.386;2023-09-08T09:10:37;27.60;99.90
14473;DHT22;7322;50.872;4.386;2023-09-08T09:13:06;27.60;99.90
14473;DHT22;7322;50.872;4.386;2023-09-08T09:15:32;27.60;99.90
14473;DHT22;7322;50.872;4.386;2023-09-08T09:18:03;27.70;99.90
14473;DHT22;7322;50.872;4.386;2023-09-08T09:20:31;27.70;99.90
14473;DHT22;7322;50.872;4.386;2023-09-08T09:22:58;27.70;99.90
14473;DHT22;7322;50.872;4.386;2023-09-08T09:25:27;27.80;99.90
14473;DHT22;7322;50.872;4.386;2023-09-08T09:27:56;27.80;99.90
14473;DHT22;7322;50.872;4.386;2023-09-08T09:30:25;27.90;99.90
14473;DHT22;7322;50.872;4.386;2023-09-08T09:33:03;27.90;99.90
14473;DHT22;7322;50.872;4.386;2023-09-08T09:35:41;27.90;99.90
14473;DHT22;7322;50.872;4.386;2023-09-08T09:38:10;27.90;99.90
14473;DHT22;7322;50.872;4.386;2023-09-08T09:40:38;27.90;99.90
14473;DHT22;7322;50.872;4.386;2023-09-08T09:43:09;27.90;99.90
14473;DHT22;7322;50.872;4.386;2023-09-08T09:45:39;28.00;99.90
14473;DHT22;7322;50.872;4.386;2023-09-08T09:48:08;28.10;99.90
14473;DHT22;7322;50.872;4.386;2023-09-08T09:50:36;28.10;99.90
14473;DHT22;7322;50.872;4.386;2023-09-08T09:53:08;28.10;99.90
14473;DHT22;7322;50.872;4.386;2023-09-08T09:55:37;28.20;99.90
14473;DHT22;7322;50.872;4.386;2023-09-08T09:58:05;28.10;99.90
14473;DHT22;7322;50.872;4.386;2023-09-08T10:00:38;28.20;99.90
14473;DHT22;7322;50.872;4.386;2023-09-08T10:03:08;28.20;99.90
14473;DHT22;7322;50.872;4.386;2023-09-08T10:05:45;28.30;99.90
14473;DHT22;7322;50.872;4.386;2023-09-08T10:08:21;28.30;99.90
14473;DHT22;7322;50.872;4.386;2023-09-08T10:10:48;28.40;99.90
14473;DHT22;7322;50.872;4.386;2023-09-08T10:13:22;28.40;99.90
14473;DHT22;7322;50.872;4.386;2023-09-08T10:15:52;28.50;99.90
14473;DHT22;7322;50.872;4.386;2023-09-08T10:18:22;28.40;99.90
14473;DHT22;7322;50.872;4.386;2023-09-08T10:20:51;28.50;99.90
14473;DHT22;7322;50.872;4.386;2023-09-08T10:23:23;28.50;99.90
14473;DHT22;7322;50.872;4.386;2023-09-08T10:26:05;28.50;99.90
14473;DHT22;7322;50.872;4.386;2023-09-08T10:28:34;28.60;99.90
14473;DHT22;7322;50.872;4.386;2023-09-08T10:31:04;28.60;99.90
14473;DHT22;7322;50.872;4.386;2023-09-08T10:33:34;28.60;99.90
14473;DHT22;7322;50.872;4.386;2023-09-08T10:36:03;28.70;99.90
14473;DHT22;7322;50.872;4.386;2023-09-08T10:38:34;28.70;99.90
14473;DHT22;7322;50.872;4.386;2023-09-08T10:41:28;28.70;99.90
14473;DHT22;7322;50.872;4.386;2023-09-08T10:44:02;28.80;99.90
14473;DHT22;7322;50.872;4.386;2023-09-08T10:46:32;28.80;99.90
14473;DHT22;7322;50.872;4.386;2023-09-08T10:49:04;28.80;99.90
14473;DHT22;7322;50.872;4.386;2023-09-08T10:51:33;28.80;99.90
14473;DHT22;7322;50.872;4.386;2023-09-08T10:54:06;28.80;99.90
14473;DHT22;7322;50.872;4.386;2023-09-08T10:56:54;28.90;99.90
14473;DHT22;7322;50.872;4.386;2023-09-08T10:59:22;28.80;99.90
14473;DHT22;7322;50.872;4.386;2023-09-08T11:01:56;28.80;99.90
14473;DHT22;7322;50.872;4.386;2023-09-08T11:04:24;28.80;99.90
14473;DHT22;7322;50.872;4.386;2023-09-08T11:06:51;28.90;99.90
14473;DHT22;7322;50.872;4.386;2023-09-08T11:09:18;28.90;99.90
14473;DHT22;7322;50.872;4.386;2023-09-08T11:11:47;29.00;99.90
14473;DHT22;7322;50.872;4.386;2023-09-08T11:14:14;28.90;99.90
14473;DHT22;7322;50.872;4.386;2023-09-08T11:16:42;29.00;99.90
14473;DHT22;7322;50.872;4.386;2023-09-08T11:19:17;29.00;99.90
14473;DHT22;7322;50.872;4.386;2023-09-08T11:21:44;29.10;99.90
14473;DHT22;7322;50.872;4.386;2023-09-08T11:24:11;29.10;99.90
14473;DHT22;7322;50.872;4.386;2023-09-08T11:26:41;29.10;99.90
14473;DHT22;7322;50.872;4.386;2023-09-08T11:29:14;29.10;99.90
14473;DHT22;7322;50.872;4.386;2023-09-08T11:31:51;29.10;99.90
14473;DHT22;7322;50.872;4.386;2023-09-08T11:34:37;29.20;99.90
14473;DHT22;7322;50.872;4.386;2023-09-08T11:37:09;29.20;99.90
14473;DHT22;7322;50.872;4.386;2023-09-08T11:39:37;29.10;99.90
14473;DHT22;7322;50.872;4.386;2023-09-08T11:42:05;29.20;99.90
14473;DHT22;7322;50.872;4.386;2023-09-08T11:44:36;29.20;99.90
14473;DHT22;7322;50.872;4.386;2023-09-08T11:47:05;29.20;99.90
14473;DHT22;7322;50.872;4.386;2023-09-08T11:49:43;29.20;99.90
14473;DHT22;7322;50.872;4.386;2023-09-08T11:52:11;29.20;99.90
14473;DHT22;7322;50.872;4.386;2023-09-08T11:54:40;29.20;99.90
14473;DHT22;7322;50.872;4.386;2023-09-08T11:57:10;29.20;99.90
14473;DHT22;7322;50.872;4.386;2023-09-08T11:59:40;29.20;99.90
14473;DHT22;7322;50.872;4.386;2023-09-08T12:02:17;29.20;99.90
14473;DHT22;7322;50.872;4.386;2023-09-08T12:04:54;29.30;99.90
14473;DHT22;7322;50.872;4.386;2023-09-08T12:07:22;29.20;99.90
14473;DHT22;7322;50.872;4.386;2023-09-08T12:09:49;29.20;99.90
14473;DHT22;7322;50.872;4.386;2023-09-08T12:12:22;29.20;99.90
14473;DHT22;7322;50.872;4.386;2023-09-08T12:15:00;29.20;99.90
14473;DHT22;7322;50.872;4.386;2023-09-08T12:17:29;29.20;99.90
14473;DHT22;7322;50.872;4.386;2023-09-08T12:19:58;29.20;99.90
14473;DHT22;7322;50.872;4.386;2023-09-08T12:22:25;29.30;99.90
14473;DHT22;7322;50.872;4.386;2023-09-08T12:24:58;29.30;99.90
14473;DHT22;7322;50.872;4.386;2023-09-08T12:27:29;29.40;99.90
14473;DHT22;7322;50.872;4.386;2023-09-08T12:30:03;29.40;99.90
14473;DHT22;7322;50.872;4.386;2023-09-08T12:32:32;29.40;99.90
14473;DHT22;7322;50.872;4.386;2023-09-08T12:35:02;29.30;99.90
14473;DHT22;7322;50.872;4.386;2023-09-08T12:37:33;29.30;99.90
14473;DHT22;7322;50.872;4.386;2023-09-08T12:40:00;29.30;99.90
14473;DHT22;7322;50.872;4.386;2023-09-08T12:42:27;29.30;99.90
14473;DHT22;7322;50.872;4.386;2023-09-08T12:44:55;29.30;99.90
14473;DHT22;7322;50.872;4.386;2023-09-08T12:47:23;29.30;99.90
14473;DHT22;7322;50.872;4.386;2023-09-08T12:49:51;29.30;99.90
14473;DHT22;7322;50.872;4.386;2023-09-08T12:52:23;29.40;99.90
14473;DHT22;7322;50.872;4.386;2023-09-08T12:54:50;29.40;99.90
14473;DHT22;7322;50.872;4.386;2023-09-08T12:57:17;29.40;99.90
14473;DHT22;7322;50.872;4.386;2023-09-08T12:59:44;29.40;99.90
14473;DHT22;7322;50.872;4.386;2023-09-08T13:02:12;29.40;99.90
14473;DHT22;7322;50.872;4.386;2023-09-08T13:04:39;29.40;99.90
14473;DHT22;7322;50.872;4.386;2023-09-08T13:07:07;29.50;99.90
14473;DHT22;7322;50.872;4.386;2023-09-08T13:09:35;29.40;99.90
14473;DHT22;7322;50.872;4.386;2023-09-08T13:12:03;29.50;99.90
14473;DHT22;7322;50.872;4.386;2023-09-08T13:14:30;29.50;99.90
14473;DHT22;7322;50.872;4.386;2023-09-08T13:16:57;29.50;99.90
14473;DHT22;7322;50.872;4.386;2023-09-08T13:19:27;29.60;99.90
14473;DHT22;7322;50.872;4.386;2023-09-08T13:21:58;29.60;99.90
14473;DHT22;7322;50.872;4.386;2023-09-08T13:24:27;29.50;99.90
14473;DHT22;7322;50.872;4.386;2023-09-08T13:27:03;29.60;99.90
14473;DHT22;7322;50.872;4.386;2023-09-08T13:29:32;29.60;99.90
14473;DHT22;7322;50.872;4.386;2023-09-08T13:32:07;29.60;99.90
14473;DHT22;7322;50.872;4.386;2023-09-08T13:34:47;29.60;99.90
14473;DHT22;7322;50.872;4.386;2023-09-08T13:37:15;29.60;99.90
14473;DHT22;7322;50.872;4.386;2023-09-08T13:39:52;29.50;99.90
14473;DHT22;7322;50.872;4.386;2023-09-08T13:42:24;29.60;99.90
14473;DHT22;7322;50.872;4.386;2023-09-08T13:44:51;29.50;99.90
14473;DHT22;7322;50.872;4.386;2023-09-08T13:47:22;29.50;99.90
14473;DHT22;7322;50.872;4.386;2023-09-08T13:49:50;29.50;99.90
14473;DHT22;7322;50.872;4.386;2023-09-08T13:52:18;29.60;99.90
14473;DHT22;7322;50.872;4.386;2023-09-08T13:54:49;29.60;99.90
14473;DHT22;7322;50.872;4.386;2023-09-08T13:57:18;29.50;99.90
14473;DHT22;7322;50.872;4.386;2023-09-08T13:59:49;29.50;99.90
14473;DHT22;7322;50.872;4.386;2023-09-08T14:02:49;29.50;99.90
14473;DHT22;7322;50.872;4.386;2023-09-08T14:05:18;29.60;99.90
14473;DHT22;7322;50.872;4.386;2023-09-08T14:07:51;29.50;99.90
14473;DHT22;7322;50.872;4.386;2023-09-08T14:10:22;29.60;99.90
14473;DHT22;7322;50.872;4.386;2023-09-08T14:12:52;29.50;99.90
14473;DHT22;7322;50.872;4.386;2023-09-08T14:15:23;29.60;99.90
14473;DHT22;7322;50.872;4.386;2023-09-08T14:17:52;29.50;99.90
14473;DHT22;7322;50.872;4.386;2023-09-08T14:20:20;29.60;99.90
14473;DHT22;7322;50.872;4.386;2023-09-08T14:26:03;29.60;99.90
14473;DHT22;7322;50.872;4.386;2023-09-08T14:28:31;29.60;99.90
14473;DHT22;7322;50.872;4.386;2023-09-08T14:33:54;29.60;99.90
14473;DHT22;7322;50.872;4.386;2023-09-08T14:36:22;29.60;99.90
14473;DHT22;7322;50.872;4.386;2023-09-08T14:38:50;29.60;99.90
14473;DHT22;7322;50.872;4.386;2023-09-08T14:41:32;29.60;99.90
14473;DHT22;7322;50.872;4.386;2023-09-08T14:44:12;29.70;99.90
14473;DHT22;7322;50.872;4.386;2023-09-08T14:46:39;29.70;99.90
14473;DHT22;7322;50.872;4.386;2023-09-08T14:49:13;29.70;99.90
14473;DHT22;7322;50.872;4.386;2023-09-08T14:51:44;29.70;99.90
14473;DHT22;7322;50.872;4.386;2023-09-08T14:54:11;29.70;99.90
14473;DHT22;7322;50.872;4.386;2023-09-08T14:56:38;29.70;99.90
14473;DHT22;7322;50.872;4.386;2023-09-08T14:59:08;29.70;99.90
14473;DHT22;7322;50.872;4.386;2023-09-08T15:01:37;29.80;99.90
14473;DHT22;7322;50.872;4.386;2023-09-08T15:04:06;29.80;99.90
14473;DHT22;7322;50.872;4.386;2023-09-08T15:06:38;29.80;99.90
14473;DHT22;7322;50.872;4.386;2023-09-08T15:09:11;29.90;99.90
14473;DHT22;7322;50.872;4.386;2023-09-08T15:11:39;29.90;99.90
14473;DHT22;7322;50.872;4.386;2023-09-08T15:14:06;29.90;99.90
14473;DHT22;7322;50.872;4.386;2023-09-08T15:19:10;29.90;99.90
14473;DHT22;7322;50.872;4.386;2023-09-08T15:21:39;29.90;99.90
14473;DHT22;7322;50.872;4.386;2023-09-08T15:24:07;29.90;99.90
14473;DHT22;7322;50.872;4.386;2023-09-08T15:26:49;29.90;99.90
14473;DHT22;7322;50.872;4.386;2023-09-08T15:29:22;29.90;99.90
14473;DHT22;7322;50.872;4.386;2023-09-08T15:32:09;29.90;99.90
14473;DHT22;7322;50.872;4.386;2023-09-08T15:34:42;29.90;99.90
14473;DHT22;7322;50.872;4.386;2023-09-08T15:37:14;29.90;99.90
14473;DHT22;7322;50.872;4.386;2023-09-08T15:39:41;29.90;99.90
14473;DHT22;7322;50.872;4.386;2023-09-08T15:42:12;29.90;99.90
14473;DHT22;7322;50.872;4.386;2023-09-08T15:44:45;29.90;99.90
14473;DHT22;7322;50.872;4.386;2023-09-08T15:47:13;30.00;99.90
14473;DHT22;7322;50.872;4.386;2023-09-08T15:49:47;29.90;99.90
14473;DHT22;7322;50.872;4.386;2023-09-08T15:52:27;30.00;99.90
14473;DHT22;7322;50.872;4.386;2023-09-08T15:55:00;30.00;99.90
14473;DHT22;7322;50.872;4.386;2023-09-08T15:57:37;29.90;99.90
14473;DHT22;7322;50.872;4.386;2023-09-08T16:00:12;30.00;99.90
14473;DHT22;7322;50.872;4.386;2023-09-08T16:02:41;30.00;99.90
14473;DHT22;7322;50.872;4.386;2023-09-08T16:05:24;29.90;99.90
14473;DHT22;7322;50.872;4.386;2023-09-08T16:08:03;30.00;99.90
14473;DHT22;7322;50.872;4.386;2023-09-08T16:10:31;30.00;99.90
14473;DHT22;7322;50.872;4.386;2023-09-08T16:13:11;30.00;99.90